createdAt,value
2022-10-17T00:02:31.478Z,62.12
2022-10-17T00:05:35.680Z,61.06
2022-10-17T00:08:41.769Z,62.75
2022-10-17T00:11:46.107Z,62.81
2022-10-17T00:14:50.537Z,62.91
2022-10-17T00:17:57.772Z,65.03
2022-10-17T00:21:02.307Z,65.06
2022-10-17T00:24:07.391Z,65.00
2022-10-17T00:27:11.746Z,65.67
2022-10-17T00:30:17.816Z,65.44
2022-10-17T00:33:22.471Z,65.73
2022-10-17T00:36:28.170Z,64.53
2022-10-17T00:39:32.761Z,65.68
2022-10-17T00:42:37.282Z,65.62
2022-10-17T00:45:41.838Z,66.02
2022-10-17T00:48:53.336Z,65.39
2022-10-17T00:52:01.859Z,65.63
2022-10-17T00:55:24.727Z,62.61
2022-10-17T00:58:29.572Z,64.33
2022-10-17T01:01:34.019Z,63.95
2022-10-17T01:04:41.206Z,62.01
2022-10-17T01:07:47.201Z,61.70
2022-10-17T01:11:07.030Z,63.35
2022-10-17T01:14:46.764Z,61.44
2022-10-17T01:18:14.751Z,62.12
2022-10-17T01:21:28.779Z,61.94
2022-10-17T01:24:49.036Z,60.40
2022-10-17T01:28:12.562Z,61.42
2022-10-17T01:31:21.551Z,60.43
2022-10-17T01:34:41.938Z,59.89
2022-10-17T01:38:04.412Z,59.29
2022-10-17T01:41:16.801Z,58.30
2022-10-17T01:44:38.225Z,60.77
2022-10-17T01:47:44.240Z,60.05
2022-10-17T01:51:08.337Z,59.42
2022-10-17T01:54:40.681Z,62.35
2022-10-17T01:57:52.903Z,63.49
2022-10-17T02:00:59.862Z,64.08
2022-10-17T02:04:10.797Z,63.83
2022-10-17T02:07:15.173Z,65.62
2022-10-17T02:10:47.543Z,66.88
2022-10-17T02:13:52.248Z,66.29
2022-10-17T02:17:17.004Z,66.81
2022-10-17T02:20:44.752Z,65.22
2022-10-17T02:24:22.477Z,64.17
2022-10-17T02:27:42.427Z,64.61
2022-10-17T02:31:16.257Z,63.97
2022-10-17T02:34:31.213Z,63.72
2022-10-17T02:37:36.968Z,65.74
2022-10-17T02:40:43.002Z,64.71
2022-10-17T02:43:50.501Z,63.93
2022-10-17T02:47:03.000Z,64.21
2022-10-17T02:50:08.609Z,64.25
2022-10-17T02:53:29.498Z,64.26
2022-10-17T02:56:42.459Z,63.68
2022-10-17T02:59:48.309Z,63.74
2022-10-17T03:02:54.807Z,63.32
2022-10-17T03:05:59.510Z,63.07
2022-10-17T03:09:05.217Z,61.04
2022-10-17T03:12:10.010Z,60.42
2022-10-17T03:15:15.158Z,60.11
2022-10-17T03:18:20.430Z,59.17
2022-10-17T03:21:26.331Z,59.67
2022-10-17T03:24:30.841Z,56.14
2022-10-17T03:27:35.620Z,58.56
2022-10-17T03:30:40.377Z,57.60
2022-10-17T03:33:45.983Z,57.22
2022-10-17T03:36:50.435Z,56.64
2022-10-17T03:39:55.767Z,55.88
2022-10-17T03:43:00.104Z,56.82
2022-10-17T03:46:06.192Z,57.08
2022-10-17T03:49:11.622Z,55.37
2022-10-17T03:52:17.537Z,56.54
2022-10-17T03:55:22.247Z,56.37
2022-10-17T03:58:27.242Z,55.88
2022-10-17T04:01:32.858Z,55.37
2022-10-17T04:04:37.687Z,54.92
2022-10-17T04:07:42.525Z,54.63
2022-10-17T04:10:47.962Z,55.60
2022-10-17T04:13:57.533Z,54.79
2022-10-17T04:17:03.527Z,54.45
2022-10-17T04:20:09.935Z,53.80
2022-10-17T04:23:14.576Z,53.80
2022-10-17T04:26:19.846Z,53.55
2022-10-17T04:29:25.388Z,51.89
2022-10-17T04:32:39.501Z,51.22
2022-10-17T04:36:03.090Z,53.63
2022-10-17T04:39:08.781Z,53.64
2022-10-17T04:42:13.681Z,53.43
2022-10-17T04:45:18.923Z,54.48
2022-10-17T04:48:25.039Z,53.64
2022-10-17T04:51:29.688Z,52.97
2022-10-17T04:54:56.195Z,53.27
2022-10-17T04:58:00.766Z,53.08
2022-10-17T05:01:09.532Z,53.34
2022-10-17T05:04:15.174Z,53.50
2022-10-17T05:07:19.967Z,53.07
2022-10-17T05:10:45.536Z,53.56
2022-10-17T05:13:56.118Z,54.06
2022-10-17T05:17:01.280Z,54.35
2022-10-17T05:20:07.301Z,54.03
2022-10-17T05:23:12.918Z,60.33
2022-10-17T05:26:21.838Z,65.01
2022-10-17T05:29:26.508Z,66.77
2022-10-17T05:32:40.245Z,67.76
2022-10-17T05:35:45.653Z,68.91
2022-10-17T05:38:54.260Z,70.01
2022-10-17T05:41:59.576Z,67.30
2022-10-17T05:45:05.915Z,64.69
2022-10-17T05:48:10.575Z,62.76
2022-10-17T05:51:15.145Z,63.78
2022-10-17T05:54:20.140Z,64.05
2022-10-17T05:57:28.659Z,64.27
2022-10-17T06:00:34.499Z,64.85
2022-10-17T06:03:39.199Z,66.52
2022-10-17T06:06:43.869Z,64.50
2022-10-17T06:09:48.172Z,66.37
2022-10-17T06:12:52.640Z,66.53
2022-10-17T06:15:58.084Z,65.06
2022-10-17T06:19:02.615Z,66.64
2022-10-17T06:22:06.917Z,68.49
2022-10-17T06:25:12.264Z,69.49
2022-10-17T06:28:16.932Z,70.34
2022-10-17T06:31:21.167Z,71.44
2022-10-17T06:34:26.588Z,70.88
2022-10-17T06:37:36.947Z,70.53
2022-10-17T06:40:45.372Z,69.75
2022-10-17T06:43:49.834Z,70.16
2022-10-17T06:47:14.332Z,69.11
2022-10-17T06:50:21.339Z,68.97
2022-10-17T06:53:36.947Z,69.23
2022-10-17T06:56:47.761Z,68.65
2022-10-17T07:00:10.898Z,68.27
2022-10-17T07:03:20.855Z,68.32
2022-10-17T07:06:26.800Z,67.55
2022-10-17T07:09:34.526Z,69.44
2022-10-17T07:12:39.227Z,69.84
2022-10-17T07:15:44.087Z,70.90
2022-10-17T07:18:51.489Z,70.38
2022-10-17T07:21:56.755Z,68.44
2022-10-17T07:25:01.735Z,67.22
2022-10-17T07:28:40.556Z,67.58
2022-10-17T07:31:58.014Z,67.71
2022-10-17T07:35:02.594Z,68.32
2022-10-17T07:38:07.622Z,68.03
2022-10-17T07:41:17.878Z,67.49
2022-10-17T07:44:25.903Z,66.36
2022-10-17T07:47:32.557Z,66.82
2022-10-17T07:50:37.524Z,65.94
2022-10-17T07:53:46.445Z,66.92
2022-10-17T07:56:55.642Z,67.32
2022-10-17T08:00:00.189Z,67.39
2022-10-17T08:03:05.962Z,69.46
2022-10-17T08:06:09.885Z,72.99
2022-10-17T08:09:14.439Z,73.55
2022-10-17T08:12:19.198Z,73.20
2022-10-17T08:15:26.806Z,73.97
2022-10-17T08:18:37.011Z,72.66
2022-10-17T08:21:45.670Z,73.27
2022-10-17T08:24:53.209Z,73.64
2022-10-17T08:27:57.759Z,73.13
2022-10-17T08:31:07.249Z,73.76
2022-10-17T08:34:11.619Z,75.30
2022-10-17T08:37:16.623Z,73.78
2022-10-17T08:40:27.940Z,73.89
2022-10-17T08:43:47.383Z,76.01
2022-10-17T08:46:55.271Z,76.89
2022-10-17T08:50:04.424Z,78.92
2022-10-17T08:53:39.252Z,78.27
2022-10-17T08:56:50.191Z,78.42
2022-10-17T08:59:56.047Z,79.12
2022-10-17T09:03:03.159Z,83.48
2022-10-17T09:06:19.079Z,82.72
2022-10-17T09:09:29.287Z,82.67
2022-10-17T09:12:39.374Z,80.56
2022-10-17T09:15:49.807Z,79.45
2022-10-17T09:19:09.891Z,80.56
2022-10-17T09:22:20.060Z,80.65
2022-10-17T09:25:25.201Z,81.98
2022-10-17T09:28:35.232Z,81.72
2022-10-17T09:31:48.544Z,81.57
2022-10-17T09:34:55.513Z,80.54
2022-10-17T09:38:00.345Z,80.43
2022-10-17T09:41:19.979Z,78.97
2022-10-17T09:44:36.646Z,80.76
2022-10-17T09:47:54.305Z,80.41
2022-10-17T09:51:14.781Z,80.17
2022-10-17T09:54:46.643Z,79.69
2022-10-17T09:58:00.007Z,79.73
2022-10-17T10:01:21.095Z,79.95
2022-10-17T10:04:30.420Z,79.45
2022-10-17T10:07:41.440Z,79.63
2022-10-17T10:10:46.472Z,79.47
2022-10-17T10:13:52.114Z,78.40
2022-10-17T10:16:57.932Z,78.89
2022-10-17T10:20:03.013Z,79.45
2022-10-17T10:23:14.715Z,79.52
2022-10-17T10:26:33.839Z,80.60
2022-10-17T10:29:50.867Z,79.89
2022-10-17T10:36:23.632Z,80.41
2022-10-17T10:39:46.126Z,80.06
2022-10-17T10:43:05.106Z,80.09
2022-10-17T10:46:28.279Z,80.91
2022-10-17T10:49:34.337Z,80.52
2022-10-17T10:52:48.611Z,80.51
2022-10-17T10:56:28.321Z,79.70
2022-10-17T11:00:03.501Z,80.72
2022-10-17T11:03:37.627Z,80.76
2022-10-17T11:06:46.700Z,80.31
2022-10-17T11:10:09.920Z,80.12
2022-10-17T11:13:24.597Z,80.39
2022-10-17T11:17:04.203Z,80.83
2022-10-17T11:20:33.682Z,81.54
2022-10-17T11:24:02.895Z,81.51
2022-10-17T11:27:11.869Z,81.08
2022-10-17T11:30:17.935Z,80.72
2022-10-17T11:33:41.217Z,81.06
2022-10-17T11:36:49.835Z,80.22
2022-10-17T11:40:02.410Z,79.35
2022-10-17T11:43:11.439Z,79.17
2022-10-17T11:46:25.446Z,77.63
2022-10-17T11:49:52.213Z,78.07
2022-10-17T11:53:06.378Z,78.74
2022-10-17T11:56:12.911Z,79.07
2022-10-17T12:00:05.087Z,80.99
2022-10-17T12:03:41.882Z,81.76
2022-10-17T12:07:10.098Z,82.13
2022-10-17T12:10:23.341Z,81.13
2022-10-17T12:13:31.166Z,81.24
2022-10-17T12:16:36.107Z,81.19
2022-10-17T12:19:41.219Z,81.11
2022-10-17T12:22:49.483Z,81.35
2022-10-17T12:26:04.721Z,82.04
2022-10-17T12:29:29.746Z,81.99
2022-10-17T12:32:53.365Z,82.39
2022-10-17T12:36:24.845Z,83.29
2022-10-17T12:39:29.724Z,82.32
2022-10-17T12:42:46.387Z,82.98
2022-10-17T12:46:01.684Z,83.62
2022-10-17T12:49:42.685Z,83.27
2022-10-17T12:52:58.708Z,82.99
2022-10-17T12:56:11.203Z,83.49
2022-10-17T12:59:29.522Z,84.32
2022-10-17T13:02:34.859Z,84.96
2022-10-17T13:05:46.551Z,83.16
2022-10-17T13:09:09.120Z,82.51
2022-10-17T13:12:23.242Z,81.38
2022-10-17T13:15:27.816Z,81.50
2022-10-17T13:18:32.330Z,82.44
2022-10-17T13:21:38.076Z,82.15
2022-10-17T13:24:42.658Z,81.97
2022-10-17T13:27:47.493Z,82.15
2022-10-17T13:30:53.690Z,81.88
2022-10-17T13:34:01.628Z,82.56
2022-10-17T13:37:11.479Z,82.25
2022-10-17T13:43:46.416Z,82.11
2022-10-17T13:46:51.881Z,82.70
2022-10-17T13:49:57.643Z,83.86
2022-10-17T13:53:27.975Z,82.98
2022-10-17T13:56:32.755Z,84.57
2022-10-17T13:59:42.258Z,84.51
2022-10-17T14:02:46.936Z,84.78
2022-10-17T14:06:14.105Z,84.06
2022-10-17T14:09:27.426Z,84.57
2022-10-17T14:12:31.691Z,84.19
2022-10-17T14:15:37.810Z,82.99
2022-10-17T14:18:48.258Z,82.87
2022-10-17T14:22:12.777Z,83.99
2022-10-17T14:25:39.053Z,84.01
2022-10-17T14:28:45.636Z,84.69
2022-10-17T14:31:51.455Z,84.40
2022-10-17T14:35:05.519Z,84.82
2022-10-17T14:38:17.676Z,84.10
2022-10-17T14:41:44.111Z,81.75
2022-10-17T14:44:54.840Z,80.81
2022-10-17T14:48:24.707Z,80.11
2022-10-17T14:51:40.077Z,80.92
2022-10-17T14:54:54.955Z,80.73
2022-10-17T14:57:59.940Z,82.22
2022-10-17T15:01:04.366Z,81.23
2022-10-17T15:04:11.602Z,81.24
2022-10-17T15:07:19.655Z,81.35
2022-10-17T15:10:34.858Z,82.09
2022-10-17T15:13:44.687Z,82.68
2022-10-17T15:16:50.001Z,83.63
2022-10-17T15:19:54.634Z,83.46
2022-10-17T15:23:01.852Z,83.26
2022-10-17T15:26:20.629Z,83.03
2022-10-17T15:29:24.987Z,83.46
2022-10-17T15:32:30.839Z,82.78
2022-10-17T15:35:35.138Z,84.61
2022-10-17T15:38:39.295Z,82.92
2022-10-17T15:41:46.142Z,82.48
2022-10-17T15:44:51.112Z,81.85
2022-10-17T15:48:05.371Z,82.55
2022-10-17T15:51:10.740Z,82.16
2022-10-17T15:54:14.948Z,82.26
2022-10-17T15:57:29.008Z,81.95
2022-10-17T16:00:33.710Z,80.44
2022-10-17T16:03:38.261Z,80.53
2022-10-17T16:06:46.002Z,80.04
2022-10-17T16:09:50.687Z,79.37
2022-10-17T16:12:55.671Z,81.19
2022-10-17T16:16:00.093Z,81.89
2022-10-17T16:19:05.097Z,81.87
2022-10-17T16:22:33.722Z,81.61
2022-10-17T16:25:38.214Z,81.87
2022-10-17T16:28:46.081Z,82.13
2022-10-17T16:31:50.747Z,83.24
2022-10-17T16:34:57.517Z,83.61
2022-10-17T16:38:01.806Z,83.71
2022-10-17T16:44:37.273Z,84.32
2022-10-17T16:47:41.835Z,84.36
2022-10-17T16:50:46.025Z,84.31
2022-10-17T16:53:54.924Z,83.85
2022-10-17T16:56:59.250Z,83.86
2022-10-17T17:00:04.340Z,83.74
2022-10-17T17:03:08.963Z,83.60
2022-10-17T17:06:22.690Z,83.03
2022-10-17T17:09:27.362Z,82.27
2022-10-17T17:12:38.210Z,83.16
2022-10-17T17:15:42.630Z,83.58
2022-10-17T17:18:47.626Z,84.64
2022-10-17T17:21:51.974Z,84.06
2022-10-17T17:24:56.306Z,84.43
2022-10-17T17:28:06.269Z,84.47
2022-10-17T17:31:23.099Z,84.31
2022-10-17T17:34:27.487Z,84.21
2022-10-17T17:37:32.203Z,83.92
2022-10-17T17:40:38.428Z,84.34
2022-10-17T17:43:44.557Z,83.55
2022-10-17T17:46:48.959Z,83.66
2022-10-17T17:49:55.068Z,83.44
2022-10-17T17:53:00.853Z,83.76
2022-10-17T17:56:07.342Z,83.73
2022-10-17T17:59:14.257Z,83.75
2022-10-17T18:02:18.711Z,83.32
2022-10-17T18:05:23.049Z,83.48
2022-10-17T18:08:28.054Z,83.32
2022-10-17T18:11:32.435Z,83.49
2022-10-17T18:14:42.522Z,83.89
2022-10-17T18:17:46.782Z,83.89
2022-10-17T18:20:51.338Z,82.30
2022-10-17T18:24:00.105Z,82.67
2022-10-17T18:27:04.475Z,82.19
2022-10-17T18:30:09.696Z,82.47
2022-10-17T18:33:15.387Z,82.06
2022-10-17T18:36:20.787Z,81.31
2022-10-17T18:39:27.619Z,80.93
2022-10-17T18:42:32.003Z,81.18
2022-10-17T18:45:37.629Z,81.00
2022-10-17T18:48:47.580Z,80.39
2022-10-17T18:51:52.623Z,80.18
2022-10-17T18:54:56.955Z,80.92
2022-10-17T18:58:02.780Z,80.79
2022-10-17T19:01:11.264Z,80.58
2022-10-17T19:04:18.080Z,80.84
2022-10-17T19:07:22.655Z,80.63
2022-10-17T19:10:29.783Z,79.19
2022-10-17T19:13:35.942Z,80.48
2022-10-17T19:16:42.972Z,80.55
2022-10-17T19:19:52.452Z,80.67
2022-10-17T19:22:56.750Z,81.31
2022-10-17T19:26:12.034Z,80.06
2022-10-17T19:29:19.296Z,80.54
2022-10-17T19:32:23.610Z,80.66
2022-10-17T19:35:28.023Z,81.14
2022-10-17T19:38:33.372Z,80.94
2022-10-17T19:41:37.585Z,80.58
2022-10-17T19:44:41.906Z,81.44
2022-10-17T19:47:46.649Z,80.60
2022-10-17T19:50:51.742Z,80.71
2022-10-17T19:53:58.327Z,79.60
2022-10-17T19:57:04.638Z,79.27
2022-10-17T20:00:11.967Z,79.44
2022-10-17T20:03:16.090Z,80.20
2022-10-17T20:06:21.022Z,79.82
2022-10-17T20:09:25.936Z,79.92
2022-10-17T20:12:33.132Z,79.48
2022-10-17T20:15:38.621Z,79.16
2022-10-17T20:18:44.057Z,79.01
2022-10-17T20:21:50.629Z,80.04
2022-10-17T20:24:54.922Z,80.07
2022-10-17T20:27:59.879Z,79.69
2022-10-17T20:31:04.267Z,79.87
2022-10-17T20:34:08.643Z,79.95
2022-10-17T20:37:13.183Z,78.60
2022-10-17T20:40:34.146Z,78.22
2022-10-17T20:43:42.903Z,78.37
2022-10-17T20:47:00.586Z,78.72
2022-10-17T20:50:06.400Z,77.49
2022-10-17T20:53:35.361Z,78.14
2022-10-17T20:56:37.058Z,78.55
2022-10-17T20:59:41.266Z,78.79
2022-10-17T21:02:45.869Z,78.09
2022-10-17T21:05:50.588Z,77.87
2022-10-17T21:08:56.691Z,77.52
2022-10-17T21:12:05.985Z,77.50
2022-10-17T21:15:11.806Z,77.95
2022-10-17T21:18:15.958Z,77.30
2022-10-17T21:21:27.594Z,78.10
2022-10-17T21:24:32.906Z,78.06
2022-10-17T21:27:37.417Z,78.18
2022-10-17T21:30:41.790Z,77.99
2022-10-17T21:33:50.014Z,77.68
2022-10-17T21:36:54.873Z,76.97
2022-10-17T21:39:59.328Z,76.55
2022-10-17T21:43:03.643Z,76.14
2022-10-17T21:46:21.685Z,76.33
2022-10-17T21:49:26.981Z,75.29
2022-10-17T21:52:31.796Z,76.26
2022-10-17T21:55:39.395Z,77.01
2022-10-17T21:58:44.261Z,76.93
2022-10-17T22:01:48.900Z,77.33
2022-10-17T22:04:53.536Z,77.49
2022-10-17T22:07:57.955Z,77.17
2022-10-17T22:11:08.509Z,76.78
2022-10-17T22:14:16.442Z,76.88
2022-10-17T22:17:21.119Z,76.26
2022-10-17T22:20:25.417Z,76.64
2022-10-17T22:23:33.466Z,76.45
2022-10-17T22:26:43.630Z,76.59
2022-10-17T22:29:50.609Z,76.54
2022-10-17T22:32:57.358Z,76.05
2022-10-17T22:36:01.848Z,76.09
2022-10-17T22:39:06.757Z,75.25
2022-10-17T22:42:11.238Z,75.26
2022-10-17T22:45:15.842Z,75.69
2022-10-17T22:48:21.718Z,75.56
2022-10-17T22:51:26.283Z,75.92
2022-10-17T22:54:30.624Z,75.70
2022-10-17T22:57:35.313Z,74.03
2022-10-17T23:00:40.388Z,74.93
2022-10-17T23:03:45.339Z,76.85
2022-10-17T23:06:49.547Z,69.91
2022-10-17T23:09:54.201Z,71.24
2022-10-17T23:12:59.956Z,71.80
2022-10-17T23:16:04.652Z,71.85
2022-10-17T23:19:09.057Z,70.28
2022-10-17T23:22:13.384Z,70.50
2022-10-17T23:25:20.040Z,69.17
2022-10-17T23:28:24.498Z,67.25
2022-10-17T23:31:28.863Z,68.36
2022-10-17T23:34:33.345Z,66.93
2022-10-17T23:37:38.724Z,65.58
2022-10-17T23:40:43.203Z,62.32
2022-10-17T23:43:47.775Z,65.06
2022-10-17T23:46:52.041Z,62.44
2022-10-17T23:49:56.472Z,63.10
2022-10-17T23:53:00.946Z,62.69
2022-10-17T23:56:06.701Z,59.89
2022-10-17T23:59:11.391Z,59.39
